Time;durP1;ratioP1;P1;durP2;ratioP2;P2;SDS_P1;SDS_P2;PMS_P1;PMS_P2;Temp;Humidity;BMP_temperature;BMP_pressure;BME280_temperature;BME280_humidity;BME280_pressure;Samples;Min_cycle;Max_cycle;Signal;HPM_P1;HPM_P2
2023/01/30 00:00:35;;;;;;;27.07;11.93;;;;;;;;;;6276325;22;20174;-90
2023/01/30 00:03:40;;;;;;;26.67;11.43;;;;;;;;;;6276142;22;20241;-90
2023/01/30 00:06:46;;;;;;;25.43;10.83;;;;;;;;;;6275907;22;20165;-89
2023/01/30 00:09:51;;;;;;;23.83;11.50;;;;;;;;;;6275383;22;20169;-90
2023/01/30 00:12:56;;;;;;;23.10;10.93;;;;;;;;;;6288220;22;20237;-91
2023/01/30 00:16:01;;;;;;;24.30;11.90;;;;;;;;;;6292227;22;20169;-90
2023/01/30 00:19:06;;;;;;;25.97;12.47;;;;;;;;;;6292067;22;20491;-91
2023/01/30 00:22:13;;;;;;;25.40;12.00;;;;;;;;;;6292535;22;20162;-90
2023/01/30 00:25:18;;;;;;;32.17;12.03;;;;;;;;;;6293098;22;20165;-89
2023/01/30 00:28:24;;;;;;;27.17;11.53;;;;;;;;;;6291870;22;20218;-90
2023/01/30 00:31:29;;;;;;;25.70;11.90;;;;;;;;;;6290966;22;20161;-90
2023/01/30 00:34:34;;;;;;;29.07;12.50;;;;;;;;;;6291626;22;20213;-91
2023/01/30 00:37:41;;;;;;;23.43;11.60;;;;;;;;;;6292789;22;20761;-89
2023/01/30 00:40:47;;;;;;;28.80;12.67;;;;;;;;;;6292232;22;20169;-91
2023/01/30 00:47:22;;;;;;;25.97;11.93;;;;;;;;;;6214276;22;20177;-90
2023/01/30 00:50:41;;;;;;;26.70;12.13;;;;;;;;;;6294672;22;20232;-90
2023/01/30 00:53:47;;;;;;;25.27;11.03;;;;;;;;;;6293944;22;20169;-90
2023/01/30 00:56:52;;;;;;;27.00;11.67;;;;;;;;;;6292607;22;20392;-90
2023/01/30 00:59:58;;;;;;;25.97;12.17;;;;;;;;;;6293003;22;20170;-91
2023/01/30 01:03:03;;;;;;;29.33;13.33;;;;;;;;;;6292218;22;20162;-90
2023/01/30 01:06:09;;;;;;;25.40;11.77;;;;;;;;;;6293964;22;20165;-90
2023/01/30 01:09:19;;;;;;;26.90;12.97;;;;;;;;;;6294474;22;20189;-90
2023/01/30 01:12:24;;;;;;;28.70;12.37;;;;;;;;;;6311871;22;20619;-91
2023/01/30 01:15:30;;;;;;;25.23;12.63;;;;;;;;;;6305887;22;20161;-89
2023/01/30 01:18:35;;;;;;;26.50;12.37;;;;;;;;;;6305928;22;20169;-89
2023/01/30 01:21:40;;;;;;;32.17;14.00;;;;;;;;;;6306562;22;20612;-90
2023/01/30 01:24:47;;;;;;;30.77;13.73;;;;;;;;;;6305876;22;20643;-90
2023/01/30 01:27:52;;;;;;;29.40;12.93;;;;;;;;;;6305560;22;20165;-90
2023/01/30 01:30:57;;;;;;;28.37;12.57;;;;;;;;;;6306253;22;20153;-92
2023/01/30 01:34:02;;;;;;;31.70;13.43;;;;;;;;;;6304826;22;20212;-89
2023/01/30 01:37:08;;;;;;;25.73;12.23;;;;;;;;;;6304788;22;20170;-91
2023/01/30 01:43:57;;;;;;;32.73;14.17;;;;;;;;;;6304254;22;20208;-90
2023/01/30 01:47:02;;;;;;;32.90;14.00;;;;;;;;;;6304500;22;20165;-92
2023/01/30 01:50:13;;;;;;;31.60;13.90;;;;;;;;;;6304031;22;20215;-91
2023/01/30 01:53:20;;;;;;;30.30;13.27;;;;;;;;;;6306079;22;20169;-91
2023/01/30 01:56:28;;;;;;;31.83;13.47;;;;;;;;;;6306340;22;20161;-90
2023/01/30 01:59:34;;;;;;;30.23;14.17;;;;;;;;;;6305314;22;20173;-90
2023/01/30 02:02:40;;;;;;;28.33;12.17;;;;;;;;;;6306862;22;20208;-93
2023/01/30 02:05:47;;;;;;;30.33;13.03;;;;;;;;;;6305427;22;20166;-89
2023/01/30 02:08:54;;;;;;;32.00;13.97;;;;;;;;;;6306047;22;20168;-89
2023/01/30 02:12:05;;;;;;;33.63;13.53;;;;;;;;;;6302964;22;20250;-89
2023/01/30 02:15:10;;;;;;;26.87;12.70;;;;;;;;;;6305672;22;20173;-90
2023/01/30 02:18:18;;;;;;;29.40;13.50;;;;;;;;;;6303348;22;20684;-90
2023/01/30 02:21:42;;;;;;;32.57;13.63;;;;;;;;;;6303716;22;20259;-89
2023/01/30 02:25:05;;;;;;;28.90;12.87;;;;;;;;;;6304352;22;20192;-89
2023/01/30 02:28:26;;;;;;;31.80;14.00;;;;;;;;;;6304948;22;20168;-90
2023/01/30 02:31:40;;;;;;;25.93;11.57;;;;;;;;;;6305089;22;20271;-86
2023/01/30 02:34:50;;;;;;;25.87;11.07;;;;;;;;;;6303632;22;20165;-89
2023/01/30 02:38:05;;;;;;;28.80;12.07;;;;;;;;;;6304046;22;20165;-89
2023/01/30 02:41:16;;;;;;;32.33;12.40;;;;;;;;;;6305195;22;20161;-90
2023/01/30 02:44:26;;;;;;;31.20;12.10;;;;;;;;;;6304336;22;20191;-89
2023/01/30 02:47:37;;;;;;;28.83;12.17;;;;;;;;;;6305085;22;20165;-92
2023/01/30 02:50:45;;;;;;;29.87;12.47;;;;;;;;;;6303413;22;20162;-90
2023/01/30 02:53:51;;;;;;;26.70;11.87;;;;;;;;;;6302079;22;20243;-91
2023/01/30 02:56:59;;;;;;;27.60;12.77;;;;;;;;;;6303278;22;20169;-88
2023/01/30 03:00:05;;;;;;;30.03;11.80;;;;;;;;;;6302989;22;20208;-91
2023/01/30 03:03:18;;;;;;;25.57;11.27;;;;;;;;;;6304103;22;20166;-90
2023/01/30 03:06:34;;;;;;;29.37;12.07;;;;;;;;;;6303687;22;20177;-89
2023/01/30 03:09:45;;;;;;;27.40;12.40;;;;;;;;;;6305246;22;20199;-89
2023/01/30 03:12:52;;;;;;;28.03;11.60;;;;;;;;;;6303253;22;20662;-89
2023/01/30 03:16:00;;;;;;;25.50;10.73;;;;;;;;;;6305060;22;20218;-90
2023/01/30 03:19:10;;;;;;;26.23;11.50;;;;;;;;;;6304780;22;20166;-91
2023/01/30 03:22:16;;;;;;;26.20;11.50;;;;;;;;;;6304574;22;20173;-90
2023/01/30 03:25:25;;;;;;;28.40;11.93;;;;;;;;;;6304844;22;20192;-88
2023/01/30 03:28:31;;;;;;;24.73;9.97;;;;;;;;;;6305247;22;20195;-88
2023/01/30 03:31:36;;;;;;;29.37;10.90;;;;;;;;;;6324280;22;20221;-88
2023/01/30 03:34:43;;;;;;;25.63;10.93;;;;;;;;;;6306956;22;20173;-90
2023/01/30 03:37:49;;;;;;;28.07;11.60;;;;;;;;;;6306483;22;20246;-88
2023/01/30 03:40:54;;;;;;;28.40;11.60;;;;;;;;;;6306321;22;20241;-89
2023/01/30 03:44:01;;;;;;;28.67;12.33;;;;;;;;;;6304980;22;20197;-88
2023/01/30 03:47:07;;;;;;;32.83;13.20;;;;;;;;;;6306436;22;20165;-89
2023/01/30 03:50:14;;;;;;;31.07;13.37;;;;;;;;;;6306828;22;20169;-89
2023/01/30 03:53:19;;;;;;;32.33;13.00;;;;;;;;;;6306954;22;20169;-89
2023/01/30 03:56:25;;;;;;;34.63;14.13;;;;;;;;;;6306307;22;20164;-89
2023/01/30 03:59:30;;;;;;;31.67;13.17;;;;;;;;;;6305092;22;20536;-91
2023/01/30 04:02:43;;;;;;;33.40;13.73;;;;;;;;;;6305682;22;20165;-89
2023/01/30 04:05:55;;;;;;;29.10;12.87;;;;;;;;;;6306747;22;20201;-91
2023/01/30 04:09:01;;;;;;;29.90;12.10;;;;;;;;;;6306451;22;20208;-90
2023/01/30 04:12:18;;;;;;;29.57;12.13;;;;;;;;;;6305988;22;20153;-90
2023/01/30 04:15:30;;;;;;;32.23;13.20;;;;;;;;;;6274865;22;20169;-91
2023/01/30 04:19:14;;;;;;;32.70;14.00;;;;;;;;;;6294023;22;20219;-89
2023/01/30 04:22:21;;;;;;;36.33;13.60;;;;;;;;;;6273546;22;20189;-89
2023/01/30 04:25:27;;;;;;;35.73;14.20;;;;;;;;;;6273968;22;20177;-89
2023/01/30 04:28:32;;;;;;;40.23;15.20;;;;;;;;;;6273739;22;20153;-90
2023/01/30 04:31:38;;;;;;;32.00;12.60;;;;;;;;;;6275346;22;20165;-91
2023/01/30 04:34:47;;;;;;;35.23;14.23;;;;;;;;;;6275013;22;20223;-90
2023/01/30 04:37:56;;;;;;;36.53;13.97;;;;;;;;;;6276253;22;20163;-89
2023/01/30 04:41:02;;;;;;;33.47;14.37;;;;;;;;;;6274875;22;20146;-89
2023/01/30 04:44:10;;;;;;;37.90;15.40;;;;;;;;;;6273986;22;20151;-90
2023/01/30 04:47:34;;;;;;;36.63;14.27;;;;;;;;;;6294187;22;20254;-92
2023/01/30 04:50:39;;;;;;;35.57;13.80;;;;;;;;;;6276425;22;20169;-92
2023/01/30 04:53:46;;;;;;;38.53;15.73;;;;;;;;;;6275170;22;20222;-89
2023/01/30 04:56:52;;;;;;;45.93;16.93;;;;;;;;;;6274830;22;20161;-90
2023/01/30 04:59:57;;;;;;;36.83;14.17;;;;;;;;;;6275195;22;20177;-90
2023/01/30 05:03:02;;;;;;;38.23;15.13;;;;;;;;;;6276694;22;20617;-91
2023/01/30 05:06:08;;;;;;;37.37;15.83;;;;;;;;;;6275380;22;20652;-93
2023/01/30 05:09:15;;;;;;;40.90;14.60;;;;;;;;;;6273901;22;20170;-89
2023/01/30 05:12:45;;;;;;;35.40;14.37;;;;;;;;;;6273199;22;20189;-90
2023/01/30 05:15:50;;;;;;;39.43;15.13;;;;;;;;;;6275741;22;20296;-91
2023/01/30 05:18:56;;;;;;;38.00;14.63;;;;;;;;;;6274915;22;20241;-91
2023/01/30 05:22:01;;;;;;;45.20;17.20;;;;;;;;;;6274702;22;20158;-90
2023/01/30 05:25:11;;;;;;;43.00;17.23;;;;;;;;;;6275364;22;20178;-89
2023/01/30 05:28:17;;;;;;;40.93;16.43;;;;;;;;;;6274094;22;20154;-91
2023/01/30 05:31:22;;;;;;;44.60;16.30;;;;;;;;;;6274961;22;20150;-89
2023/01/30 05:34:28;;;;;;;42.07;16.43;;;;;;;;;;6275756;22;20166;-91
2023/01/30 05:37:33;;;;;;;41.60;16.03;;;;;;;;;;6275152;22;20221;-90
2023/01/30 05:40:40;;;;;;;44.50;17.53;;;;;;;;;;6272419;22;20548;-89
2023/01/30 05:43:45;;;;;;;38.83;15.43;;;;;;;;;;6273750;22;20166;-88
2023/01/30 05:46:56;;;;;;;40.53;16.50;;;;;;;;;;6273238;22;20219;-90
2023/01/30 05:50:01;;;;;;;43.13;16.80;;;;;;;;;;6273848;22;20162;-88
2023/01/30 05:53:09;;;;;;;42.80;17.03;;;;;;;;;;6275580;22;20166;-89
2023/01/30 05:56:16;;;;;;;49.13;17.10;;;;;;;;;;6272197;22;20205;-88
2023/01/30 05:59:21;;;;;;;44.97;18.03;;;;;;;;;;6271587;22;20669;-90
2023/01/30 06:02:27;;;;;;;45.80;17.07;;;;;;;;;;6274095;22;20162;-89
2023/01/30 06:05:32;;;;;;;40.47;17.07;;;;;;;;;;6275417;22;20244;-88
2023/01/30 06:08:37;;;;;;;42.17;16.83;;;;;;;;;;6274670;22;20166;-90
2023/01/30 06:11:51;;;;;;;44.83;18.23;;;;;;;;;;6274568;22;20184;-90
2023/01/30 06:14:56;;;;;;;44.03;17.07;;;;;;;;;;6290255;22;20257;-89
2023/01/30 06:18:01;;;;;;;45.40;17.67;;;;;;;;;;6292468;22;20173;-89
2023/01/30 06:21:07;;;;;;;46.33;17.67;;;;;;;;;;6296466;22;20178;-89
2023/01/30 06:24:13;;;;;;;55.30;26.57;;;;;;;;;;6294249;22;20248;-89
2023/01/30 06:27:19;;;;;;;44.57;16.67;;;;;;;;;;6292342;22;20230;-88
2023/01/30 06:30:25;;;;;;;44.47;16.77;;;;;;;;;;6292464;22;20166;-91
2023/01/30 06:33:30;;;;;;;45.37;16.97;;;;;;;;;;6294008;22;20272;-87
2023/01/30 06:36:36;;;;;;;48.53;17.17;;;;;;;;;;6293398;22;20283;-90
2023/01/30 06:39:42;;;;;;;47.87;17.80;;;;;;;;;;6294292;22;20169;-90
2023/01/30 06:42:49;;;;;;;45.07;17.00;;;;;;;;;;6291542;22;20216;-88
2023/01/30 06:45:54;;;;;;;44.60;17.43;;;;;;;;;;6292965;22;20181;-89
2023/01/30 06:48:59;;;;;;;45.63;18.07;;;;;;;;;;6293855;22;20154;-89
2023/01/30 06:52:10;;;;;;;52.73;17.80;;;;;;;;;;6294620;22;20177;-92
2023/01/30 06:55:21;;;;;;;49.30;18.13;;;;;;;;;;6293988;22;20170;-91
2023/01/30 06:58:28;;;;;;;51.37;18.70;;;;;;;;;;6293158;22;20162;-91
2023/01/30 07:01:34;;;;;;;48.77;18.53;;;;;;;;;;6294081;22;20189;-90
2023/01/30 07:04:40;;;;;;;46.30;18.60;;;;;;;;;;6296219;22;20153;-90
2023/01/30 07:07:45;;;;;;;48.77;19.17;;;;;;;;;;6295366;22;20185;-93
2023/01/30 07:10:50;;;;;;;49.13;18.17;;;;;;;;;;6295978;22;20492;-94
2023/01/30 07:13:57;;;;;;;46.07;18.13;;;;;;;;;;6291327;22;20185;-91
2023/01/30 07:17:03;;;;;;;51.97;18.67;;;;;;;;;;6276766;22;20149;-90
2023/01/30 07:20:12;;;;;;;45.97;16.77;;;;;;;;;;6295416;22;20150;-88
2023/01/30 07:23:17;;;;;;;42.90;17.10;;;;;;;;;;6295050;22;20185;-90
2023/01/30 07:26:24;;;;;;;46.30;17.70;;;;;;;;;;6295452;22;20193;-90
2023/01/30 07:29:31;;;;;;;40.40;15.93;;;;;;;;;;6277081;22;20165;-90
2023/01/30 07:32:36;;;;;;;44.20;15.40;;;;;;;;;;6295051;22;20173;-90
2023/01/30 07:35:41;;;;;;;48.07;18.07;;;;;;;;;;6295547;22;20158;-90
2023/01/30 07:38:49;;;;;;;46.23;17.63;;;;;;;;;;6296006;22;20173;-89
2023/01/30 07:41:55;;;;;;;47.37;17.30;;;;;;;;;;6295424;22;20212;-91
2023/01/30 07:45:04;;;;;;;40.93;16.23;;;;;;;;;;6295589;22;20169;-90
2023/01/30 07:48:14;;;;;;;45.30;16.80;;;;;;;;;;6276956;22;20170;-90
2023/01/30 07:51:19;;;;;;;45.37;17.57;;;;;;;;;;6295647;22;20142;-90
2023/01/30 07:54:27;;;;;;;39.33;15.37;;;;;;;;;;6295255;22;20511;-91
2023/01/30 07:57:32;;;;;;;41.20;16.47;;;;;;;;;;6295045;22;20166;-90
2023/01/30 08:00:39;;;;;;;51.43;16.90;;;;;;;;;;6296417;22;20181;-92
2023/01/30 08:03:48;;;;;;;52.03;19.30;;;;;;;;;;6294408;22;20149;-91
2023/01/30 08:06:54;;;;;;;49.07;18.20;;;;;;;;;;6295923;22;20189;-90
2023/01/30 08:10:00;;;;;;;44.70;16.83;;;;;;;;;;6294523;22;20173;-91
2023/01/30 08:13:05;;;;;;;48.30;16.70;;;;;;;;;;6298725;22;20228;-91
2023/01/30 08:16:12;;;;;;;42.30;16.00;;;;;;;;;;6308061;22;20242;-90
2023/01/30 08:19:17;;;;;;;42.27;16.67;;;;;;;;;;6306974;22;20165;-91
2023/01/30 08:22:23;;;;;;;38.77;15.67;;;;;;;;;;6306314;22;20296;-91
2023/01/30 08:25:29;;;;;;;41.30;16.17;;;;;;;;;;6308924;22;20216;-91
2023/01/30 08:28:35;;;;;;;36.50;15.00;;;;;;;;;;6306321;22;20218;-92
2023/01/30 08:31:43;;;;;;;35.63;15.27;;;;;;;;;;6308535;22;20170;-91
2023/01/30 08:34:50;;;;;;;43.00;15.57;;;;;;;;;;6307420;22;20731;-89
2023/01/30 08:37:55;;;;;;;37.10;15.37;;;;;;;;;;6306154;22;20157;-89
2023/01/30 08:41:01;;;;;;;32.80;13.17;;;;;;;;;;6309075;22;20196;-91
2023/01/30 08:44:11;;;;;;;38.70;14.90;;;;;;;;;;6310600;22;20154;-91
2023/01/30 08:47:34;;;;;;;40.73;12.97;;;;;;;;;;6307284;22;20216;-90
2023/01/30 08:50:40;;;;;;;35.40;14.53;;;;;;;;;;6307969;22;20168;-89
2023/01/30 08:53:45;;;;;;;46.67;14.80;;;;;;;;;;6306650;22;20156;-89
2023/01/30 08:56:52;;;;;;;35.87;13.67;;;;;;;;;;6309716;22;20168;-92
2023/01/30 09:00:00;;;;;;;43.43;15.70;;;;;;;;;;6307185;22;20539;-92
2023/01/30 09:03:07;;;;;;;48.43;16.07;;;;;;;;;;6307702;22;20516;-90
2023/01/30 09:06:14;;;;;;;45.23;13.60;;;;;;;;;;6305596;22;20176;-91
2023/01/30 09:09:20;;;;;;;38.10;13.27;;;;;;;;;;6308927;22;20149;-91
2023/01/30 09:12:26;;;;;;;30.80;12.93;;;;;;;;;;6307309;22;20180;-90
2023/01/30 09:15:32;;;;;;;36.07;13.80;;;;;;;;;;6308630;22;20168;-91
2023/01/30 09:18:41;;;;;;;30.37;12.57;;;;;;;;;;6307016;22;20173;-90
2023/01/30 09:21:47;;;;;;;34.97;13.30;;;;;;;;;;6308120;22;20205;-90
2023/01/30 09:24:54;;;;;;;33.90;12.43;;;;;;;;;;6307795;22;20153;-90
2023/01/30 09:28:00;;;;;;;36.70;13.50;;;;;;;;;;6308271;22;20224;-92
2023/01/30 09:31:08;;;;;;;40.30;14.03;;;;;;;;;;6308086;22;20166;-92
2023/01/30 09:34:15;;;;;;;35.67;13.77;;;;;;;;;;6308181;22;20164;-92
2023/01/30 09:37:21;;;;;;;39.77;13.60;;;;;;;;;;6306159;22;20153;-92
2023/01/30 09:40:28;;;;;;;29.67;12.93;;;;;;;;;;6305232;22;20230;-92
2023/01/30 09:43:41;;;;;;;35.77;13.63;;;;;;;;;;6305512;22;20164;-91
2023/01/30 09:46:50;;;;;;;38.07;13.37;;;;;;;;;;6306828;22;20188;-91
2023/01/30 09:50:07;;;;;;;38.43;13.07;;;;;;;;;;6308030;22;20193;-92
2023/01/30 09:53:15;;;;;;;34.93;13.90;;;;;;;;;;6306950;22;20235;-92
2023/01/30 09:56:21;;;;;;;33.60;13.23;;;;;;;;;;6307148;22;20188;-95
2023/01/30 09:59:37;;;;;;;36.10;13.63;;;;;;;;;;6306050;22;20157;-93
2023/01/30 10:02:49;;;;;;;33.00;13.93;;;;;;;;;;6307945;22;20164;-91
2023/01/30 10:05:58;;;;;;;36.97;14.70;;;;;;;;;;6305172;22;20189;-90
2023/01/30 10:09:07;;;;;;;36.20;14.07;;;;;;;;;;6304382;22;20152;-90
2023/01/30 10:12:23;;;;;;;31.63;14.00;;;;;;;;;;6305360;22;20462;-91
2023/01/30 10:15:37;;;;;;;29.57;11.93;;;;;;;;;;6274648;22;20174;-93
2023/01/30 10:18:47;;;;;;;31.63;12.87;;;;;;;;;;6274104;22;20165;-90
2023/01/30 10:21:58;;;;;;;29.20;12.60;;;;;;;;;;6276446;22;20162;-90
2023/01/30 10:25:08;;;;;;;28.50;12.13;;;;;;;;;;6273589;22;20150;-92
2023/01/30 10:28:18;;;;;;;31.07;13.57;;;;;;;;;;6291887;22;20170;-89
2023/01/30 10:31:25;;;;;;;35.53;13.37;;;;;;;;;;6274660;22;20297;-90
2023/01/30 10:34:33;;;;;;;38.87;13.50;;;;;;;;;;6273683;22;20209;-92
2023/01/30 10:41:08;;;;;;;29.77;12.10;;;;;;;;;;6277901;22;20220;-91
2023/01/30 10:44:17;;;;;;;34.03;12.07;;;;;;;;;;6275575;22;20487;-91
2023/01/30 10:47:31;;;;;;;32.77;12.27;;;;;;;;;;6292092;22;20185;-91
2023/01/30 10:50:43;;;;;;;29.27;12.07;;;;;;;;;;6276836;22;20158;-89
2023/01/30 10:53:58;;;;;;;35.30;12.90;;;;;;;;;;6292136;22;20181;-89
2023/01/30 10:57:09;;;;;;;44.47;17.37;;;;;;;;;;6273847;22;20169;-90
2023/01/30 11:00:19;;;;;;;28.43;12.20;;;;;;;;;;6293216;22;20617;-89
2023/01/30 11:03:29;;;;;;;32.03;12.53;;;;;;;;;;6276671;22;20209;-91
2023/01/30 11:06:35;;;;;;;35.37;12.27;;;;;;;;;;6275078;22;20182;-90
2023/01/30 11:13:11;;;;;;;31.93;11.90;;;;;;;;;;6282397;22;20166;-92
2023/01/30 11:16:20;;;;;;;37.40;13.60;;;;;;;;;;6304526;22;20237;-91
2023/01/30 11:19:32;;;;;;;34.20;12.23;;;;;;;;;;6306488;22;20210;-92
2023/01/30 11:22:38;;;;;;;25.63;11.10;;;;;;;;;;6306755;22;20612;-91
2023/01/30 11:25:57;;;;;;;32.73;12.43;;;;;;;;;;6309537;22;20235;-90
2023/01/30 11:29:32;;;;;;;34.67;13.37;;;;;;;;;;6305933;22;20185;-93
2023/01/30 11:32:40;;;;;;;33.77;12.00;;;;;;;;;;6308147;22;20149;-91
2023/01/30 11:35:53;;;;;;;34.63;12.63;;;;;;;;;;6308125;22;20249;-89
2023/01/30 11:39:00;;;;;;;40.43;12.90;;;;;;;;;;6307255;22;20165;-91
2023/01/30 11:42:11;;;;;;;40.47;13.63;;;;;;;;;;6306378;22;20227;-91
2023/01/30 11:45:18;;;;;;;29.93;11.73;;;;;;;;;;6308228;22;20165;-92
2023/01/30 11:48:27;;;;;;;27.77;11.87;;;;;;;;;;6305931;22;20588;-91
2023/01/30 11:51:37;;;;;;;28.33;12.40;;;;;;;;;;6306805;22;20576;-91
2023/01/30 11:54:44;;;;;;;31.27;11.87;;;;;;;;;;6307218;22;20170;-90
2023/01/30 11:57:53;;;;;;;26.57;11.50;;;;;;;;;;6306273;22;20173;-92
2023/01/30 12:00:59;;;;;;;33.53;12.13;;;;;;;;;;6308076;22;20202;-90
2023/01/30 12:04:07;;;;;;;32.27;13.03;;;;;;;;;;6308716;22;20291;-92
2023/01/30 12:07:18;;;;;;;30.37;12.27;;;;;;;;;;6306731;22;20263;-90
2023/01/30 12:10:28;;;;;;;30.93;12.87;;;;;;;;;;6307226;22;20179;-91
2023/01/30 12:13:38;;;;;;;35.80;13.93;;;;;;;;;;6305734;22;20755;-92
2023/01/30 12:16:51;;;;;;;30.53;12.43;;;;;;;;;;6306863;22;20173;-91
2023/01/30 12:20:00;;;;;;;33.23;11.50;;;;;;;;;;6308642;22;20157;-91
2023/01/30 12:23:12;;;;;;;28.43;11.87;;;;;;;;;;6308388;22;20165;-90
2023/01/30 12:26:24;;;;;;;39.20;13.70;;;;;;;;;;6307105;22;20165;-92
2023/01/30 12:29:34;;;;;;;47.77;16.13;;;;;;;;;;6306962;22;20161;-92
2023/01/30 12:32:40;;;;;;;45.80;14.93;;;;;;;;;;6306599;22;20177;-90
2023/01/30 12:35:50;;;;;;;44.50;14.77;;;;;;;;;;6307146;22;20169;-91
2023/01/30 12:39:05;;;;;;;42.07;16.07;;;;;;;;;;6307609;22;20168;-91
2023/01/30 12:42:18;;;;;;;48.17;19.00;;;;;;;;;;6306237;22;20169;-92
2023/01/30 12:45:27;;;;;;;46.70;20.17;;;;;;;;;;6306146;22;20165;-90
2023/01/30 12:48:37;;;;;;;41.67;17.10;;;;;;;;;;6306691;22;20260;-89
2023/01/30 12:51:56;;;;;;;38.93;15.70;;;;;;;;;;6307467;22;20604;-90
2023/01/30 12:55:06;;;;;;;33.73;14.50;;;;;;;;;;6322975;22;20161;-90
2023/01/30 12:58:15;;;;;;;48.17;20.70;;;;;;;;;;6305962;22;20228;-91
2023/01/30 13:01:28;;;;;;;41.90;19.40;;;;;;;;;;6306889;22;20165;-92
2023/01/30 13:04:40;;;;;;;27.60;11.30;;;;;;;;;;6306563;22;20232;-94
2023/01/30 13:07:52;;;;;;;25.97;10.73;;;;;;;;;;6305777;22;20616;-92
2023/01/30 13:11:04;;;;;;;28.33;11.10;;;;;;;;;;6304994;22;20230;-89
2023/01/30 13:14:15;;;;;;;28.60;11.40;;;;;;;;;;6294218;22;20194;-93
2023/01/30 13:17:39;;;;;;;33.53;11.80;;;;;;;;;;6293032;22;20169;-93
2023/01/30 13:20:51;;;;;;;32.00;12.90;;;;;;;;;;6294411;22;20182;-91
2023/01/30 13:24:05;;;;;;;33.03;13.10;;;;;;;;;;6294071;22;20161;-89
2023/01/30 13:27:14;;;;;;;34.27;13.47;;;;;;;;;;6291688;22;20238;-91
2023/01/30 13:30:24;;;;;;;32.63;13.47;;;;;;;;;;6292447;22;20161;-91
2023/01/30 13:33:32;;;;;;;32.27;10.97;;;;;;;;;;6293024;22;20197;-92
2023/01/30 13:36:40;;;;;;;32.97;11.33;;;;;;;;;;6291578;22;20234;-91
2023/01/30 13:39:49;;;;;;;30.43;10.57;;;;;;;;;;6294274;22;20149;-91
2023/01/30 13:43:06;;;;;;;34.03;11.57;;;;;;;;;;6296523;22;20621;-90
2023/01/30 13:46:15;;;;;;;28.63;11.20;;;;;;;;;;6294966;22;20222;-90
2023/01/30 13:49:26;;;;;;;41.33;14.10;;;;;;;;;;6294622;22;20228;-91
2023/01/30 13:52:34;;;;;;;44.57;16.00;;;;;;;;;;6292754;22;20174;-91
2023/01/30 13:55:43;;;;;;;75.53;25.20;;;;;;;;;;6291679;22;20166;-92
2023/01/30 13:58:51;;;;;;;63.13;22.33;;;;;;;;;;6295581;22;20178;-92
2023/01/30 14:02:17;;;;;;;35.30;14.33;;;;;;;;;;6295250;22;20240;-90
2023/01/30 14:05:37;;;;;;;41.37;13.30;;;;;;;;;;6296340;22;20170;-92
2023/01/30 14:08:57;;;;;;;35.33;13.40;;;;;;;;;;6292028;22;20240;-92
2023/01/30 14:12:05;;;;;;;32.30;13.33;;;;;;;;;;6298607;22;20171;-90
2023/01/30 14:15:32;;;;;;;31.90;12.17;;;;;;;;;;6295301;22;20185;-91
2023/01/30 14:18:38;;;;;;;35.87;13.70;;;;;;;;;;6295798;22;20150;-89
2023/01/30 14:21:54;;;;;;;28.93;10.90;;;;;;;;;;6294055;22;20210;-91
2023/01/30 14:25:18;;;;;;;28.20;10.63;;;;;;;;;;6295170;22;20174;-92
2023/01/30 14:28:51;;;;;;;24.70;10.97;;;;;;;;;;6296045;22;20197;-91
2023/01/30 14:32:00;;;;;;;25.43;10.67;;;;;;;;;;6296453;22;20257;-91
2023/01/30 14:35:20;;;;;;;28.27;9.87;;;;;;;;;;6296193;22;20204;-92
2023/01/30 14:38:26;;;;;;;23.53;10.07;;;;;;;;;;6296456;22;20650;-90
2023/01/30 14:41:32;;;;;;;26.10;10.27;;;;;;;;;;6297020;22;20237;-89
2023/01/30 14:44:59;;;;;;;26.13;10.87;;;;;;;;;;6294250;22;20173;-89
2023/01/30 14:48:29;;;;;;;26.33;10.17;;;;;;;;;;6296091;22;20206;-90
2023/01/30 14:51:36;;;;;;;20.77;9.20;;;;;;;;;;6297007;22;20210;-90
2023/01/30 14:55:01;;;;;;;23.63;9.80;;;;;;;;;;6294629;22;20165;-90
2023/01/30 14:58:16;;;;;;;22.77;9.10;;;;;;;;;;6291647;22;20178;-91
2023/01/30 15:01:22;;;;;;;26.80;10.67;;;;;;;;;;6293709;22;20238;-91
2023/01/30 15:04:31;;;;;;;26.67;9.37;;;;;;;;;;6295921;22;20166;-91
2023/01/30 15:07:43;;;;;;;26.10;9.90;;;;;;;;;;6296393;22;20185;-92
2023/01/30 15:11:02;;;;;;;17.77;8.47;;;;;;;;;;6293725;22;20161;-92
2023/01/30 15:14:12;;;;;;;21.97;8.97;;;;;;;;;;6292798;22;20185;-90
2023/01/30 15:17:22;;;;;;;21.77;8.47;;;;;;;;;;6294639;22;20170;-90
2023/01/30 15:20:36;;;;;;;19.97;8.37;;;;;;;;;;6291966;22;20233;-89
2023/01/30 15:27:23;;;;;;;16.00;7.07;;;;;;;;;;6295124;22;20259;-89
2023/01/30 15:30:41;;;;;;;19.37;7.37;;;;;;;;;;6292519;22;20233;-91
2023/01/30 15:33:47;;;;;;;16.83;6.80;;;;;;;;;;6292060;22;20169;-91
2023/01/30 15:36:53;;;;;;;17.17;6.43;;;;;;;;;;6296221;22;20177;-91
2023/01/30 15:40:25;;;;;;;19.70;8.80;;;;;;;;;;6294215;22;20234;-91
2023/01/30 15:43:43;;;;;;;16.30;6.80;;;;;;;;;;6273178;22;20184;-91
2023/01/30 15:46:55;;;;;;;14.40;5.87;;;;;;;;;;6292306;22;20169;-91
2023/01/30 15:50:03;;;;;;;11.43;5.37;;;;;;;;;;6295877;22;20215;-90
2023/01/30 15:57:19;;;;;;;15.13;6.00;;;;;;;;;;6295955;22;20181;-92
2023/01/30 16:00:30;;;;;;;18.00;6.90;;;;;;;;;;6299363;22;20149;-91
2023/01/30 16:03:48;;;;;;;12.87;6.07;;;;;;;;;;6299672;22;20170;-92
2023/01/30 16:07:05;;;;;;;12.83;5.90;;;;;;;;;;6298037;22;20166;-91
2023/01/30 16:10:13;;;;;;;12.73;5.30;;;;;;;;;;6297294;22;20169;-91
2023/01/30 16:13:23;;;;;;;10.60;5.03;;;;;;;;;;6307540;22;20172;-90
2023/01/30 16:16:34;;;;;;;11.33;4.83;;;;;;;;;;6312860;22;20162;-90
2023/01/30 16:19:40;;;;;;;10.40;5.27;;;;;;;;;;6311262;22;20177;-91
2023/01/30 16:22:47;;;;;;;11.07;5.13;;;;;;;;;;6314320;22;20169;-92
2023/01/30 16:25:54;;;;;;;10.67;5.13;;;;;;;;;;6312524;22;20259;-89
2023/01/30 17:01:19;;;;;;;11.87;5.23;;;;;;;;;;6293720;22;20214;-89
2023/01/30 17:04:28;;;;;;;12.93;4.93;;;;;;;;;;6310191;22;20165;-89
2023/01/30 17:07:35;;;;;;;10.47;5.10;;;;;;;;;;6307745;22;20216;-88
2023/01/30 17:10:50;;;;;;;10.93;5.33;;;;;;;;;;6306994;22;20165;-92
2023/01/30 17:14:09;;;;;;;12.37;6.10;;;;;;;;;;6307046;22;20169;-90
2023/01/30 17:17:25;;;;;;;11.77;6.10;;;;;;;;;;6313256;22;20239;-91
2023/01/30 17:20:50;;;;;;;12.20;5.33;;;;;;;;;;6327068;22;20236;-90
2023/01/30 17:23:58;;;;;;;9.93;4.93;;;;;;;;;;6309407;22;20173;-90
2023/01/30 17:27:05;;;;;;;16.07;6.70;;;;;;;;;;6307458;22;20165;-91
2023/01/30 17:30:17;;;;;;;14.57;5.60;;;;;;;;;;6309763;22;20236;-90
2023/01/30 17:33:24;;;;;;;11.10;5.23;;;;;;;;;;6309434;22;20203;-89
2023/01/30 17:36:31;;;;;;;13.00;5.77;;;;;;;;;;6308493;22;20169;-90
2023/01/30 17:39:36;;;;;;;10.80;5.20;;;;;;;;;;6307609;22;20170;-88
2023/01/30 17:42:42;;;;;;;11.17;5.30;;;;;;;;;;6306599;22;20169;-89
2023/01/30 17:45:48;;;;;;;9.87;4.40;;;;;;;;;;6307707;22;20184;-90
2023/01/30 17:48:59;;;;;;;10.30;4.90;;;;;;;;;;6307298;22;20200;-90
2023/01/30 17:52:05;;;;;;;8.50;4.30;;;;;;;;;;6328168;22;20223;-87
2023/01/30 17:55:12;;;;;;;9.90;4.93;;;;;;;;;;6305775;22;20165;-91
2023/01/30 17:58:18;;;;;;;15.40;5.80;;;;;;;;;;6306012;22;20216;-91
2023/01/30 18:01:23;;;;;;;11.80;5.00;;;;;;;;;;6306989;22;20192;-91
2023/01/30 18:04:30;;;;;;;10.87;4.80;;;;;;;;;;6307773;22;20214;-91
2023/01/30 18:10:25;;;;;;;10.30;5.33;;;;;;;;;;6321374;22;20233;-88
2023/01/30 18:13:32;;;;;;;15.67;6.50;;;;;;;;;;6306933;22;20164;-91
2023/01/30 18:16:37;;;;;;;11.73;5.50;;;;;;;;;;6307625;22;20169;-91
2023/01/30 18:19:45;;;;;;;13.00;6.07;;;;;;;;;;6308689;22;20177;-92
2023/01/30 18:22:53;;;;;;;15.33;7.30;;;;;;;;;;6307974;22;20161;-91
2023/01/30 18:26:01;;;;;;;16.60;6.40;;;;;;;;;;6329997;22;20165;-91
2023/01/30 18:29:06;;;;;;;17.37;6.13;;;;;;;;;;6307161;22;20196;-91
2023/01/30 18:32:18;;;;;;;13.10;5.27;;;;;;;;;;6309102;22;20168;-91
2023/01/30 18:35:30;;;;;;;13.33;6.70;;;;;;;;;;6308128;22;20214;-91
2023/01/30 18:38:39;;;;;;;16.90;7.47;;;;;;;;;;6309833;22;20220;-92
2023/01/30 18:41:45;;;;;;;12.10;6.40;;;;;;;;;;6308998;22;20167;-90
2023/01/30 18:44:50;;;;;;;14.53;6.27;;;;;;;;;;6308134;22;20237;-91
2023/01/30 18:47:56;;;;;;;10.17;5.17;;;;;;;;;;6306590;22;20177;-92
2023/01/30 18:51:10;;;;;;;14.03;5.43;;;;;;;;;;6307019;22;20165;-90
2023/01/30 18:54:17;;;;;;;12.63;5.70;;;;;;;;;;6305404;22;20161;-90
2023/01/30 18:57:27;;;;;;;13.53;5.33;;;;;;;;;;6305928;22;20204;-91
2023/01/30 19:00:32;;;;;;;16.60;5.83;;;;;;;;;;6307857;22;20173;-92
2023/01/30 19:03:42;;;;;;;14.07;5.63;;;;;;;;;;6307846;22;20161;-90
2023/01/30 19:06:53;;;;;;;29.60;10.73;;;;;;;;;;6307098;22;20184;-90
2023/01/30 19:09:59;;;;;;;16.43;5.97;;;;;;;;;;6293175;22;20189;-89
2023/01/30 19:16:28;;;;;;;14.17;6.37;;;;;;;;;;6278349;22;20566;-88
2023/01/30 19:19:35;;;;;;;15.17;6.13;;;;;;;;;;6277128;22;20216;-90
2023/01/30 19:22:42;;;;;;;15.77;6.93;;;;;;;;;;6277562;22;20165;-91